Time;durP1;ratioP1;P1;durP2;ratioP2;P2;SDS_P1;SDS_P2;PMS_P1;PMS_P2;Temp;Humidity;BMP_temperature;BMP_pressure;BME280_temperature;BME280_humidity;BME280_pressure;Samples;Min_cycle;Max_cycle;Signal;HPM_P1;HPM_P2
2021/10/19 00:01:50;;;;;;;;;;;;;;;;;;5028604;28;20301;-57
2021/10/19 00:04:17;;;;;;;;;;;;;;;;;;5025345;28;19933;-58
2021/10/19 00:06:44;;;;;;;;;;;;;;;;;;5025801;28;19931;-60
2021/10/19 00:09:10;;;;;;;;;;;;;;;;;;5026099;28;20383;-61
2021/10/19 00:11:37;;;;;;;;;;;;;;;;;;5028513;28;19925;-61
2021/10/19 00:14:04;;;;;;;;;;;;;;;;;;5029142;28;19925;-60
2021/10/19 00:16:31;;;;;;;;;;;;;;;;;;5029010;28;20313;-60
2021/10/19 00:18:58;;;;;;;;;;;;;;;;;;5033445;28;19925;-60
2021/10/19 00:21:25;;;;;;;;;;;;;;;;;;5035824;28;19925;-59
2021/10/19 00:23:52;;;;;;;;;;;;;;;;;;5035757;28;19932;-60
2021/10/19 00:26:19;;;;;;;;;;;;;;;;;;5034631;28;20381;-59
2021/10/19 00:28:46;;;;;;;;;;;;;;;;;;5039980;28;19929;-60
2021/10/19 00:31:13;;;;;;;;;;;;;;;;;;5036521;28;19931;-61
2021/10/19 00:33:40;;;;;;;;;;;;;;;;;;5035522;28;20326;-59
2021/10/19 00:36:07;;;;;;;;;;;;;;;;;;5033551;28;20377;-61
2021/10/19 00:38:33;;;;;;;;;;;;;;;;;;5039834;28;19932;-61
2021/10/19 00:41:00;;;;;;;;;;;;;;;;;;5031690;28;19940;-61
2021/10/19 00:43:27;;;;;;;;;;;;;;;;;;5034595;28;19925;-61
2021/10/19 00:45:54;;;;;;;;;;;;;;;;;;5036695;28;19932;-58
2021/10/19 00:48:24;;;;;;;;;;;;;;;;;;5039306;28;19948;-58
2021/10/19 00:50:51;;;;;;;;;;;;;;;;;;5030162;28;19983;-60
2021/10/19 00:53:18;;;;;;;;;;;;;;;;;;5034458;28;19932;-58
2021/10/19 00:55:45;;;;;;;;;;;;;;;;;;5032590;28;19933;-61
2021/10/19 00:58:12;;;;;;;;;;;;;;;;;;5034419;28;19925;-60
2021/10/19 01:00:39;;;;;;;;;;;;;;;;;;5033494;28;19956;-60
2021/10/19 01:03:06;;;;;;;;;;;;;;;;;;5031571;28;19929;-60
2021/10/19 01:05:33;;;;;;;;;;;;;;;;;;5035064;28;19944;-61
2021/10/19 01:08:00;;;;;;;;;;;;;;;;;;5036521;28;19929;-59
2021/10/19 01:10:27;;;;;;;;;;;;;;;;;;5032737;28;19935;-58
2021/10/19 01:12:54;;;;;;;;;;;;;;;;;;5032385;28;20514;-60
2021/10/19 01:15:21;;;;;;;;;;;;;;;;;;5033967;28;19925;-60
2021/10/19 01:17:47;;;;;;;;;;;;;;;;;;5036504;28;20416;-59
2021/10/19 01:20:14;;;;;;;;;;;;;;;;;;5035614;28;19925;-58
2021/10/19 01:22:41;;;;;;;;;;;;;;;;;;5034319;28;19925;-58
2021/10/19 01:25:08;;;;;;;;;;;;;;;;;;5036280;28;19933;-56
2021/10/19 01:27:35;;;;;;;;;;;;;;;;;;5037153;28;19929;-60
2021/10/19 01:30:02;;;;;;;;;;;;;;;;;;5031969;28;19932;-58
2021/10/19 01:32:29;;;;;;;;;;;;;;;;;;5030317;28;20431;-59
2021/10/19 01:34:56;;;;;;;;;;;;;;;;;;5029781;28;19936;-60
2021/10/19 01:37:23;;;;;;;;;;;;;;;;;;5030277;28;19926;-60
2021/10/19 01:39:50;;;;;;;;;;;;;;;;;;5028448;28;20415;-60
2021/10/19 01:42:17;;;;;;;;;;;;;;;;;;5024922;28;19940;-58
2021/10/19 01:44:43;;;;;;;;;;;;;;;;;;5029707;28;19929;-60
2021/10/19 01:47:10;;;;;;;;;;;;;;;;;;5029563;28;20004;-61
2021/10/19 01:49:37;;;;;;;;;;;;;;;;;;5029451;28;19929;-59
2021/10/19 01:52:04;;;;;;;;;;;;;;;;;;5025821;28;19925;-61
2021/10/19 01:54:31;;;;;;;;;;;;;;;;;;5032072;28;19932;-59
2021/10/19 01:56:58;;;;;;;;;;;;;;;;;;5029683;28;19925;-60
2021/10/19 01:59:25;;;;;;;;;;;;;;;;;;5026515;28;19925;-61
2021/10/19 02:01:52;;;;;;;;;;;;;;;;;;5028425;28;20012;-61
2021/10/19 02:04:19;;;;;;;;;;;;;;;;;;5028107;28;19932;-60
2021/10/19 02:06:46;;;;;;;;;;;;;;;;;;5025509;28;20382;-59
2021/10/19 02:09:13;;;;;;;;;;;;;;;;;;5027179;28;19933;-61
2021/10/19 02:11:39;;;;;;;;;;;;;;;;;;5028902;28;19988;-61
2021/10/19 02:14:06;;;;;;;;;;;;;;;;;;5029387;28;19936;-62
2021/10/19 02:16:33;;;;;;;;;;;;;;;;;;5030315;28;20405;-61
2021/10/19 02:19:00;;;;;;;;;;;;;;;;;;5036039;28;19937;-61
2021/10/19 02:21:27;;;;;;;;;;;;;;;;;;5029886;28;20294;-61
2021/10/19 02:23:54;;;;;;;;;;;;;;;;;;5031912;28;19932;-59
2021/10/19 02:26:22;;;;;;;;;;;;;;;;;;5032534;28;19925;-61
2021/10/19 02:28:49;;;;;;;;;;;;;;;;;;5032810;28;20365;-61
2021/10/19 02:31:15;;;;;;;;;;;;;;;;;;5026133;28;19925;-61
2021/10/19 02:33:42;;;;;;;;;;;;;;;;;;5028240;28;19931;-60
2021/10/19 02:36:09;;;;;;;;;;;;;;;;;;5029703;28;20423;-59
2021/10/19 02:38:36;;;;;;;;;;;;;;;;;;5033383;28;19925;-61
2021/10/19 02:41:03;;;;;;;;;;;;;;;;;;5029069;28;20325;-61
2021/10/19 02:43:30;;;;;;;;;;;;;;;;;;5029710;28;20381;-62
2021/10/19 02:45:57;;;;;;;;;;;;;;;;;;5027629;28;19929;-64
2021/10/19 02:48:24;;;;;;;;;;;;;;;;;;5032578;28;19925;-61
2021/10/19 02:50:51;;;;;;;;;;;;;;;;;;5028328;28;20420;-60
2021/10/19 02:53:18;;;;;;;;;;;;;;;;;;5033845;28;19925;-59
2021/10/19 02:55:45;;;;;;;;;;;;;;;;;;5028833;28;19925;-59
2021/10/19 02:58:11;;;;;;;;;;;;;;;;;;5029784;28;19933;-59
2021/10/19 03:00:38;;;;;;;;;;;;;;;;;;5028802;28;19925;-59
2021/10/19 03:03:05;;;;;;;;;;;;;;;;;;5028211;28;20013;-59
2021/10/19 03:05:32;;;;;;;;;;;;;;;;;;5027722;28;19933;-61
2021/10/19 03:07:59;;;;;;;;;;;;;;;;;;5032333;28;19929;-60
2021/10/19 03:10:26;;;;;;;;;;;;;;;;;;5026665;28;20015;-61
2021/10/19 03:12:53;;;;;;;;;;;;;;;;;;5026905;28;19925;-59
2021/10/19 03:15:23;;;;;;;;;;;;;;;;;;5026630;28;19925;-59
2021/10/19 03:17:50;;;;;;;;;;;;;;;;;;5033870;28;19925;-61
2021/10/19 03:20:17;;;;;;;;;;;;;;;;;;5024383;28;20583;-59
2021/10/19 03:22:44;;;;;;;;;;;;;;;;;;5029739;28;19933;-60
2021/10/19 03:25:11;;;;;;;;;;;;;;;;;;5026696;28;19925;-61
2021/10/19 03:27:38;;;;;;;;;;;;;;;;;;5024338;28;19952;-58
2021/10/19 03:30:04;;;;;;;;;;;;;;;;;;5027259;28;20027;-61
2021/10/19 03:32:31;;;;;;;;;;;;;;;;;;5032043;28;19952;-60
2021/10/19 03:34:59;;;;;;;;;;;;;;;;;;5026743;28;19925;-61
2021/10/19 03:37:25;;;;;;;;;;;;;;;;;;5033777;28;19979;-58
2021/10/19 03:39:52;;;;;;;;;;;;;;;;;;5026563;28;20021;-57
2021/10/19 03:42:19;;;;;;;;;;;;;;;;;;5024334;28;20282;-60
2021/10/19 03:44:46;;;;;;;;;;;;;;;;;;5044043;22;19931;-68
2021/10/19 03:47:13;;;;;;;;;;;;;;;;;;5033444;28;19931;-68
2021/10/19 03:49:40;;;;;;;;;;;;;;;;;;5029161;28;20400;-68
2021/10/19 03:52:07;;;;;;;;;;;;;;;;;;5028044;28;19925;-67
2021/10/19 03:54:34;;;;;;;;;;;;;;;;;;5021541;28;20020;-68
2021/10/19 03:57:01;;;;;;;;;;;;;;;;;;5026324;28;19925;-69
2021/10/19 03:59:29;;;;;;;;;;;;;;;;;;5023478;28;19933;-68
2021/10/19 04:01:56;;;;;;;;;;;;;;;;;;5025682;28;19925;-68
2021/10/19 04:04:23;;;;;;;;;;;;;;;;;;5027861;28;19932;-67
2021/10/19 04:06:50;;;;;;;;;;;;;;;;;;5024435;28;19969;-68
2021/10/19 04:09:17;;;;;;;;;;;;;;;;;;5022688;28;19932;-68
2021/10/19 04:11:44;;;;;;;;;;;;;;;;;;5022453;28;20308;-68
2021/10/19 04:14:11;;;;;;;;;;;;;;;;;;5023209;28;19933;-68
2021/10/19 04:16:38;;;;;;;;;;;;;;;;;;5017805;28;20737;-68
2021/10/19 04:19:05;;;;;;;;;;;;;;;;;;5025203;28;19929;-68
2021/10/19 04:21:32;;;;;;;;;;;;;;;;;;5026864;28;19940;-68
2021/10/19 04:23:59;;;;;;;;;;;;;;;;;;5027037;28;19929;-68
2021/10/19 04:26:26;;;;;;;;;;;;;;;;;;5023675;28;19933;-69
2021/10/19 04:28:53;;;;;;;;;;;;;;;;;;5018519;28;19936;-68
2021/10/19 04:31:20;;;;;;;;;;;;;;;;;;5020930;28;19972;-67
2021/10/19 04:33:47;;;;;;;;;;;;;;;;;;5026899;28;19931;-68
2021/10/19 04:36:14;;;;;;;;;;;;;;;;;;5026667;28;20169;-66
2021/10/19 04:38:41;;;;;;;;;;;;;;;;;;5025390;28;19925;-67
2021/10/19 04:41:08;;;;;;;;;;;;;;;;;;5025626;28;20363;-67
2021/10/19 04:43:35;;;;;;;;;;;;;;;;;;5023702;28;19952;-68
2021/10/19 04:46:02;;;;;;;;;;;;;;;;;;5023262;28;19925;-68
2021/10/19 04:48:29;;;;;;;;;;;;;;;;;;5024559;28;20282;-67
2021/10/19 04:50:56;;;;;;;;;;;;;;;;;;5028541;28;20320;-67
2021/10/19 04:53:23;;;;;;;;;;;;;;;;;;5021718;28;19925;-67
2021/10/19 04:55:50;;;;;;;;;;;;;;;;;;5027714;28;19925;-67
2021/10/19 04:58:17;;;;;;;;;;;;;;;;;;5019198;28;19939;-66
2021/10/19 05:00:46;;;;;;;;;;;;;;;;;;5024119;28;19932;-67
2021/10/19 05:03:15;;;;;;;;;;;;;;;;;;5031045;28;19939;-66
2021/10/19 05:05:42;;;;;;;;;;;;;;;;;;5023220;28;20066;-68
2021/10/19 05:08:09;;;;;;;;;;;;;;;;;;5031176;28;19929;-68
2021/10/19 05:10:36;;;;;;;;;;;;;;;;;;5030437;28;20039;-67
2021/10/19 05:13:03;;;;;;;;;;;;;;;;;;5025830;28;19925;-67
2021/10/19 05:15:30;;;;;;;;;;;;;;;;;;5030564;28;19925;-67
2021/10/19 05:17:57;;;;;;;;;;;;;;;;;;5027704;28;19925;-66
2021/10/19 05:20:24;;;;;;;;;;;;;;;;;;5030701;28;19925;-67
2021/10/19 05:22:51;;;;;;;;;;;;;;;;;;5024051;28;20360;-68
2021/10/19 05:25:18;;;;;;;;;;;;;;;;;;5030271;28;19980;-67
2021/10/19 05:27:46;;;;;;;;;;;;;;;;;;5028924;28;20293;-69
2021/10/19 05:30:13;;;;;;;;;;;;;;;;;;5023702;28;19932;-68
2021/10/19 05:32:40;;;;;;;;;;;;;;;;;;5030380;28;19983;-66
2021/10/19 05:35:07;;;;;;;;;;;;;;;;;;5026453;28;19935;-69
2021/10/19 05:37:34;;;;;;;;;;;;;;;;;;5027976;28;19932;-69
2021/10/19 05:40:00;;;;;;;;;;;;;;;;;;5029725;28;19935;-69
2021/10/19 05:42:27;;;;;;;;;;;;;;;;;;5030394;28;19925;-68
2021/10/19 05:44:54;;;;;;;;;;;;;;;;;;5030322;28;19926;-68
2021/10/19 05:47:21;;;;;;;;;;;;;;;;;;5030216;28;19991;-68
2021/10/19 05:49:48;;;;;;;;;;;;;;;;;;5024215;28;19940;-67
2021/10/19 05:52:15;;;;;;;;;;;;;;;;;;5031667;28;19933;-69
2021/10/19 05:54:42;;;;;;;;;;;;;;;;;;5029509;28;19925;-67
2021/10/19 05:57:09;;;;;;;;;;;;;;;;;;5033857;28;19930;-66
2021/10/19 05:59:36;;;;;;;;;;;;;;;;;;5027758;28;19925;-67
2021/10/19 06:02:03;;;;;;;;;;;;;;;;;;5032342;28;19931;-68
2021/10/19 06:04:30;;;;;;;;;;;;;;;;;;5028794;28;19925;-67
2021/10/19 06:06:57;;;;;;;;;;;;;;;;;;5023784;28;19925;-67
2021/10/19 06:09:24;;;;;;;;;;;;;;;;;;5025493;28;19929;-67
2021/10/19 06:11:52;;;;;;;;;;;;;;;;;;5024852;28;19949;-67
2021/10/19 06:14:19;;;;;;;;;;;;;;;;;;5020708;28;19930;-67
2021/10/19 06:16:46;;;;;;;;;;;;;;;;;;5020287;28;19926;-66
2021/10/19 06:19:13;;;;;;;;;;;;;;;;;;5025266;28;19925;-66
2021/10/19 06:21:40;;;;;;;;;;;;;;;;;;5027761;28;19935;-67
2021/10/19 06:24:07;;;;;;;;;;;;;;;;;;5032577;28;19925;-67
2021/10/19 06:26:35;;;;;;;;;;;;;;;;;;5025304;28;20370;-67
2021/10/19 06:29:02;;;;;;;;;;;;;;;;;;5023761;28;19941;-67
2021/10/19 06:31:29;;;;;;;;;;;;;;;;;;5028545;28;20317;-67
2021/10/19 06:33:56;;;;;;;;;;;;;;;;;;5030348;28;19931;-68
2021/10/19 06:36:23;;;;;;;;;;;;;;;;;;5028562;28;19956;-67
2021/10/19 06:38:50;;;;;;;;;;;;;;;;;;5028877;28;20308;-67
2021/10/19 06:41:17;;;;;;;;;;;;;;;;;;5027013;28;19964;-67
2021/10/19 06:43:44;;;;;;;;;;;;;;;;;;5027535;28;19925;-68
2021/10/19 06:46:11;;;;;;;;;;;;;;;;;;5027049;28;19932;-68
2021/10/19 06:48:38;;;;;;;;;;;;;;;;;;5024135;28;20352;-67
2021/10/19 06:51:06;;;;;;;;;;;;;;;;;;5022767;28;20330;-67
2021/10/19 06:53:33;;;;;;;;;;;;;;;;;;5015684;28;19933;-67
2021/10/19 06:56:00;;;;;;;;;;;;;;;;;;5020542;28;19961;-67
2021/10/19 06:58:27;;;;;;;;;;;;;;;;;;5023585;28;20285;-67
2021/10/19 07:00:54;;;;;;;;;;;;;;;;;;5021598;28;19948;-67
2021/10/19 07:03:21;;;;;;;;;;;;;;;;;;5014654;28;19932;-67
2021/10/19 07:05:51;;;;;;;;;;;;;;;;;;5026819;28;19925;-67
2021/10/19 07:08:18;;;;;;;;;;;;;;;;;;5025512;28;19929;-67
2021/10/19 07:10:45;;;;;;;;;;;;;;;;;;5024295;28;20064;-68
2021/10/19 07:13:12;;;;;;;;;;;;;;;;;;5027425;28;19925;-68
2021/10/19 07:15:39;;;;;;;;;;;;;;;;;;5035909;28;19935;-68
2021/10/19 07:18:06;;;;;;;;;;;;;;;;;;5028945;28;20016;-68
2021/10/19 07:20:33;;;;;;;;;;;;;;;;;;5026692;28;19932;-67
2021/10/19 07:23:00;;;;;;;;;;;;;;;;;;5031228;28;19925;-68
2021/10/19 07:25:27;;;;;;;;;;;;;;;;;;5028216;28;19929;-68
2021/10/19 07:27:56;;;;;;;;;;;;;;;;;;5030533;28;19925;-68
2021/10/19 07:30:23;;;;;;;;;;;;;;;;;;5028680;28;20300;-68
2021/10/19 07:32:50;;;;;;;;;;;;;;;;;;5028712;28;19925;-69
2021/10/19 07:35:18;;;;;;;;;;;;;;;;;;5029210;28;19939;-68
2021/10/19 07:37:45;;;;;;;;;;;;;;;;;;5033046;28;20020;-68
2021/10/19 07:40:12;;;;;;;;;;;;;;;;;;5034705;28;19928;-68
2021/10/19 07:42:39;;;;;;;;;;;;;;;;;;5029610;28;19933;-67
2021/10/19 07:45:06;;;;;;;;;;;;;;;;;;5030677;28;19929;-68
2021/10/19 07:47:33;;;;;;;;;;;;;;;;;;5024938;28;19933;-67
2021/10/19 07:50:00;;;;;;;;;;;;;;;;;;5024949;28;19925;-68
2021/10/19 07:52:27;;;;;;;;;;;;;;;;;;5029545;28;19925;-68
2021/10/19 07:54:54;;;;;;;;;;;;;;;;;;5029107;28;19937;-67
2021/10/19 07:57:21;;;;;;;;;;;;;;;;;;5029606;28;19926;-68
2021/10/19 07:59:48;;;;;;;;;;;;;;;;;;5029539;28;20016;-68
2021/10/19 08:02:15;;;;;;;;;;;;;;;;;;5025755;28;20347;-68
2021/10/19 08:04:42;;;;;;;;;;;;;;;;;;5026640;28;19925;-68
2021/10/19 08:07:09;;;;;;;;;;;;;;;;;;5026588;28;19925;-68
2021/10/19 08:09:36;;;;;;;;;;;;;;;;;;5027698;28;20019;-67
2021/10/19 08:12:03;;;;;;;;;;;;;;;;;;5024907;28;19940;-67
2021/10/19 08:14:30;;;;;;;;;;;;;;;;;;5029353;28;19933;-67
2021/10/19 08:16:57;;;;;;;;;;;;;;;;;;5026117;28;20282;-66
2021/10/19 08:19:24;;;;;;;;;;;;;;;;;;5028183;28;19925;-67
2021/10/19 08:21:51;;;;;;;;;;;;;;;;;;5028708;28;20427;-66
2021/10/19 08:24:18;;;;;;;;;;;;;;;;;;5029226;28;19972;-66
2021/10/19 08:26:45;;;;;;;;;;;;;;;;;;5026823;28;20401;-64
2021/10/19 08:29:12;;;;;;;;;;;;;;;;;;5031722;28;20007;-66
2021/10/19 08:31:39;;;;;;;;;;;;;;;;;;5033105;28;20531;-67
2021/10/19 08:34:06;;;;;;;;;;;;;;;;;;5028235;28;19952;-68
2021/10/19 08:36:33;;;;;;;;;;;;;;;;;;5024719;28;19933;-68
2021/10/19 08:39:00;;;;;;;;;;;;;;;;;;5030765;28;19929;-67
2021/10/19 08:41:30;;;;;;;;;;;;;;;;;;5033876;28;19957;-67
2021/10/19 08:43:57;;;;;;;;;;;;;;;;;;5037078;28;20101;-68
2021/10/19 08:46:24;;;;;;;;;;;;;;;;;;5031522;28;19925;-67
2021/10/19 08:48:51;;;;;;;;;;;;;;;;;;5036549;28;19972;-68
2021/10/19 08:51:18;;;;;;;;;;;;;;;;;;5033258;28;19933;-67
2021/10/19 08:53:45;;;;;;;;;;;;;;;;;;5027715;28;19928;-67
2021/10/19 08:56:12;;;;;;;;;;;;;;;;;;5035772;28;20019;-68
2021/10/19 08:58:40;;;;;;;;;;;;;;;;;;5029398;28;20012;-68
2021/10/19 09:01:07;;;;;;;;;;;;;;;;;;5031089;28;19932;-67
2021/10/19 09:03:34;;;;;;;;;;;;;;;;;;5028323;28;19925;-67
2021/10/19 09:06:01;;;;;;;;;;;;;;;;;;5028358;28;19925;-67
2021/10/19 09:08:28;;;;;;;;;;;;;;;;;;5034627;28;20025;-68
2021/10/19 09:10:55;;;;;;;;;;;;;;;;;;5035116;28;19925;-67
2021/10/19 09:13:22;;;;;;;;;;;;;;;;;;5040347;28;20399;-67
2021/10/19 09:15:49;;;;;;;;;;;;;;;;;;5034512;28;20015;-67
2021/10/19 09:18:16;;;;;;;;;;;;;;;;;;5032344;28;19964;-67
2021/10/19 09:20:43;;;;;;;;;;;;;;;;;;5032495;28;19925;-68
2021/10/19 09:23:10;;;;;;;;;;;;;;;;;;5036117;28;20439;-68
2021/10/19 09:25:37;;;;;;;;;;;;;;;;;;5036415;28;20479;-66
2021/10/19 09:28:03;;;;;;;;;;;;;;;;;;5032968;28;19925;-67
2021/10/19 09:30:31;;;;;;;;;;;;;;;;;;5029698;28;19941;-67
2021/10/19 09:32:57;;;;;;;;;;;;;;;;;;5025681;28;20278;-66
2021/10/19 09:35:24;;;;;;;;;;;;;;;;;;5033288;28;20404;-67
2021/10/19 09:37:51;;;;;;;;;;;;;;;;;;5032770;28;19925;-67
2021/10/19 09:40:18;;;;;;;;;;;;;;;;;;5033382;28;19961;-67
2021/10/19 09:42:45;;;;;;;;;;;;;;;;;;5047216;22;19932;31
2021/10/19 09:45:12;;;;;;;;;;;;;;;;;;5045942;28;19924;-58
2021/10/19 09:47:40;;;;;;;;;;;;;;;;;;5046312;28;19925;-57
2021/10/19 09:50:07;;;;;;;;;;;;;;;;;;5048862;28;19980;-58
2021/10/19 09:52:37;;;;;;;;;;;;;;;;;;5048502;28;20385;-59
2021/10/19 09:55:05;;;;;;;;;;;;;;;;;;5028785;28;20040;-59
2021/10/19 09:57:32;;;;;;;;;;;;;;;;;;5022566;28;19932;-59
2021/10/19 09:59:59;;;;;;;;;;;;;;;;;;5025348;28;20023;-59
2021/10/19 10:02:25;;;;;;;;;;;;;;;;;;5024082;28;20052;-58
2021/10/19 10:04:52;;;;;;;;;;;;;;;;;;5023839;28;20330;-59
2021/10/19 10:07:21;;;;;;;;;;;;;;;;;;5027358;28;19925;-57
2021/10/19 10:09:48;;;;;;;;;;;;;;;;;;5024724;28;19979;-56
2021/10/19 10:12:15;;;;;;;;;;;;;;;;;;5027155;28;19932;-56
2021/10/19 10:14:44;;;;;;;;;;;;;;;;;;5024819;28;19931;-57
2021/10/19 10:17:11;;;;;;;;;;;;;;;;;;5025199;28;19933;-59
2021/10/19 10:19:38;;;;;;;;;;;;;;;;;;5028680;28;20192;-57
2021/10/19 10:22:05;;;;;;;;;;;;;;;;;;5024635;28;19931;-59
2021/10/19 10:24:32;;;;;;;;;;;;;;;;;;5024118;28;20421;-58
2021/10/19 10:26:59;;;;;;;;;;;;;;;;;;5025030;28;19931;-58
2021/10/19 10:29:26;;;;;;;;;;;;;;;;;;5022784;28;19932;-58
2021/10/19 10:31:53;;;;;;;;;;;;;;;;;;5019073;28;19933;-58
2021/10/19 10:34:20;;;;;;;;;;;;;;;;;;5024941;28;19925;-58
2021/10/19 10:36:48;;;;;;;;;;;;;;;;;;5013284;28;19944;-58
2021/10/19 10:39:15;;;;;;;;;;;;;;;;;;5021890;28;19929;-59
2021/10/19 10:41:42;;;;;;;;;;;;;;;;;;5023706;28;19933;-58
2021/10/19 10:44:09;;;;;;;;;;;;;;;;;;5027858;28;19925;-57
2021/10/19 10:46:36;;;;;;;;;;;;;;;;;;5024467;28;20304;-59
2021/10/19 10:49:03;;;;;;;;;;;;;;;;;;5025025;28;19931;-58
2021/10/19 10:51:30;;;;;;;;;;;;;;;;;;5029635;28;19929;-59
2021/10/19 10:53:57;;;;;;;;;;;;;;;;;;5034527;28;19935;-59
2021/10/19 10:56:24;;;;;;;;;;;;;;;;;;5034526;28;20458;-59
2021/10/19 10:58:51;;;;;;;;;;;;;;;;;;5030145;28;19931;-59
2021/10/19 11:01:19;;;;;;;;;;;;;;;;;;5025504;28;19925;-58
2021/10/19 11:03:46;;;;;;;;;;;;;;;;;;5026271;28;19948;-60
2021/10/19 11:06:13;;;;;;;;;;;;;;;;;;5022080;28;20020;-60
2021/10/19 11:08:40;;;;;;;;;;;;;;;;;;5020904;28;19929;-59
2021/10/19 11:11:07;;;;;;;;;;;;;;;;;;5022661;28;20301;-60
2021/10/19 11:13:33;;;;;;;;;;;;;;;;;;5021158;28;19933;-58
2021/10/19 11:16:00;;;;;;;;;;;;;;;;;;5016570;28;19940;-59
2021/10/19 11:18:28;;;;;;;;;;;;;;;;;;5019969;28;19925;-59
2021/10/19 11:20:55;;;;;;;;;;;;;;;;;;5022708;28;20043;-60
2021/10/19 11:23:21;;;;;;;;;;;;;;;;;;5026003;28;19925;-59
2021/10/19 11:25:48;;;;;;;;;;;;;;;;;;5023160;28;19925;-57
2021/10/19 11:28:17;;;;;;;;;;;;;;;;;;5021989;28;19931;-58
2021/10/19 11:30:46;;;;;;;;;;;;;;;;;;5025184;28;19979;-56
2021/10/19 11:33:13;;;;;;;;;;;;;;;;;;5024593;28;19933;-56
2021/10/19 11:35:40;;;;;;;;;;;;;;;;;;5025781;28;19936;-58
2021/10/19 11:38:07;;;;;;;;;;;;;;;;;;5021611;28;19929;-58
2021/10/19 11:40:34;;;;;;;;;;;;;;;;;;5027571;28;20367;-58
2021/10/19 11:43:01;;;;;;;;;;;;;;;;;;5028604;28;19925;-58
2021/10/19 11:45:28;;;;;;;;;;;;;;;;;;5021619;28;19933;-57
2021/10/19 11:47:55;;;;;;;;;;;;;;;;;;5021256;28;20178;-59
2021/10/19 11:50:22;;;;;;;;;;;;;;;;;;5023984;28;19935;-55
2021/10/19 11:52:49;;;;;;;;;;;;;;;;;;5028840;28;20317;-59
2021/10/19 11:55:16;;;;;;;;;;;;;;;;;;5027455;28;20203;-57
2021/10/19 11:57:43;;;;;;;;;;;;;;;;;;5024130;28;20016;-58
2021/10/19 12:00:10;;;;;;;;;;;;;;;;;;5025397;28;19958;-57
2021/10/19 12:02:37;;;;;;;;;;;;;;;;;;5026786;28;20291;-58
2021/10/19 12:05:04;;;;;;;;;;;;;;;;;;5027303;28;19940;-58
2021/10/19 12:07:31;;;;;;;;;;;;;;;;;;5019853;28;19933;-57
2021/10/19 12:09:58;;;;;;;;;;;;;;;;;;5014234;28;19933;-58
2021/10/19 12:12:25;;;;;;;;;;;;;;;;;;5021336;28;19944;-59
2021/10/19 12:14:52;;;;;;;;;;;;;;;;;;5023781;28;19925;-58
2021/10/19 12:17:19;;;;;;;;;;;;;;;;;;5023554;28;19925;-58
2021/10/19 12:19:46;;;;;;;;;;;;;;;;;;5026377;28;20400;-57
2021/10/19 12:22:13;;;;;;;;;;;;;;;;;;5023527;28;19936;-59
2021/10/19 12:24:40;;;;;;;;;;;;;;;;;;5025321;28;20396;-58
2021/10/19 12:27:07;;;;;;;;;;;;;;;;;;5019776;28;19936;-58
2021/10/19 12:29:34;;;;;;;;;;;;;;;;;;5025825;28;19932;-59
2021/10/19 12:32:01;;;;;;;;;;;;;;;;;;5025967;28;19926;-58
2021/10/19 12:34:28;;;;;;;;;;;;;;;;;;5022491;28;20225;-59
2021/10/19 12:36:56;;;;;;;;;;;;;;;;;;5022250;28;19936;-58
2021/10/19 12:39:23;;;;;;;;;;;;;;;;;;5025962;28;20360;-59
2021/10/19 12:41:50;;;;;;;;;;;;;;;;;;5024996;28;19947;-55
2021/10/19 12:44:17;;;;;;;;;;;;;;;;;;5023688;28;20308;-57
2021/10/19 12:46:44;;;;;;;;;;;;;;;;;;5022378;28;19974;-58
2021/10/19 12:49:11;;;;;;;;;;;;;;;;;;5026940;28;20325;-57
2021/10/19 12:51:38;;;;;;;;;;;;;;;;;;5024798;28;19932;-58
2021/10/19 12:54:05;;;;;;;;;;;;;;;;;;5025649;28;19925;-56
2021/10/19 12:56:32;;;;;;;;;;;;;;;;;;5025163;28;20282;-57
2021/10/19 12:58:59;;;;;;;;;;;;;;;;;;5027802;28;20371;-56
2021/10/19 13:01:26;;;;;;;;;;;;;;;;;;5023756;28;19932;-58
2021/10/19 13:03:54;;;;;;;;;;;;;;;;;;5025202;28;20472;-58
2021/10/19 13:06:21;;;;;;;;;;;;;;;;;;5024504;28;19964;-59
2021/10/19 13:08:48;;;;;;;;;;;;;;;;;;5023669;28;20397;-57
2021/10/19 13:11:15;;;;;;;;;;;;;;;;;;5030905;28;20584;-59
2021/10/19 13:13:42;;;;;;;;;;;;;;;;;;5038463;28;19931;-59
2021/10/19 13:16:09;;;;;;;;;;;;;;;;;;5035546;28;19925;-59
2021/10/19 13:18:38;;;;;;;;;;;;;;;;;;5034004;28;19992;-59
2021/10/19 13:21:05;;;;;;;;;;;;;;;;;;5041914;28;20389;-59
2021/10/19 13:23:32;;;;;;;;;;;;;;;;;;5036351;28;20047;-59
2021/10/19 13:25:59;;;;;;;;;;;;;;;;;;5036846;28;19925;-60
2021/10/19 13:28:26;;;;;;;;;;;;;;;;;;5039681;28;20024;-59
2021/10/19 13:30:53;;;;;;;;;;;;;;;;;;5042315;28;19925;-59
2021/10/19 13:33:21;;;;;;;;;;;;;;;;;;5039517;28;19929;-58
2021/10/19 13:35:48;;;;;;;;;;;;;;;;;;5041723;28;19933;-59
2021/10/19 13:38:14;;;;;;;;;;;;;;;;;;5043668;28;19949;-59
2021/10/19 13:40:43;;;;;;;;;;;;;;;;;;5038120;28;19932;-59
2021/10/19 13:43:10;;;;;;;;;;;;;;;;;;5045126;28;19925;-59
2021/10/19 13:45:37;;;;;;;;;;;;;;;;;;5040968;28;19996;-59
2021/10/19 13:48:07;;;;;;;;;;;;;;;;;;5042746;28;19989;-59
2021/10/19 13:50:34;;;;;;;;;;;;;;;;;;5047766;28;19925;-59
2021/10/19 13:53:01;;;;;;;;;;;;;;;;;;5046993;28;20000;-57
2021/10/19 13:55:28;;;;;;;;;;;;;;;;;;5043442;28;19936;-57
2021/10/19 13:57:55;;;;;;;;;;;;;;;;;;5043131;28;19925;-59
2021/10/19 14:00:22;;;;;;;;;;;;;;;;;;5039628;28;20500;-59
2021/10/19 14:02:49;;;;;;;;;;;;;;;;;;5044436;28;19925;-59
2021/10/19 14:05:16;;;;;;;;;;;;;;;;;;5041623;28;19925;-59
2021/10/19 14:07:43;;;;;;;;;;;;;;;;;;5040942;28;19974;-59
2021/10/19 14:10:10;;;;;;;;;;;;;;;;;;5037195;28;19925;-58
2021/10/19 14:12:38;;;;;;;;;;;;;;;;;;5041315;28;19929;-59
2021/10/19 14:15:05;;;;;;;;;;;;;;;;;;5042631;28;19925;-60
2021/10/19 14:17:32;;;;;;;;;;;;;;;;;;5045051;28;19925;-59
2021/10/19 14:19:59;;;;;;;;;;;;;;;;;;5042783;28;19931;-59
2021/10/19 14:22:26;;;;;;;;;;;;;;;;;;5041159;28;19964;-57
2021/10/19 14:24:53;;;;;;;;;;;;;;;;;;5043366;28;19988;-59
2021/10/19 14:27:20;;;;;;;;;;;;;;;;;;5042875;28;19931;-58
2021/10/19 14:29:50;;;;;;;;;;;;;;;;;;5044821;28;19932;-59
2021/10/19 14:32:17;;;;;;;;;;;;;;;;;;5043844;28;19932;-59
2021/10/19 14:34:44;;;;;;;;;;;;;;;;;;5040498;28;19925;-59
2021/10/19 14:37:11;;;;;;;;;;;;;;;;;;5039497;28;20060;-59
2021/10/19 14:39:38;;;;;;;;;;;;;;;;;;5041731;28;19965;-59
2021/10/19 14:42:05;;;;;;;;;;;;;;;;;;5037183;28;19948;-58
2021/10/19 14:44:32;;;;;;;;;;;;;;;;;;5038389;28;19932;-59
2021/10/19 14:47:00;;;;;;;;;;;;;;;;;;5038465;28;19961;-59
2021/10/19 14:49:27;;;;;;;;;;;;;;;;;;5037708;28;19932;-58
2021/10/19 14:51:57;;;;;;;;;;;;;;;;;;5038972;28;19929;-58
2021/10/19 14:54:24;;;;;;;;;;;;;;;;;;5036814;28;20413;-58
2021/10/19 14:56:51;;;;;;;;;;;;;;;;;;5040157;28;19960;-59
2021/10/19 14:59:18;;;;;;;;;;;;;;;;;;5037751;28;19972;-58
2021/10/19 15:01:45;;;;;;;;;;;;;;;;;;5036194;28;20021;-58
2021/10/19 15:04:12;;;;;;;;;;;;;;;;;;5037557;28;20001;-58
2021/10/19 15:06:39;;;;;;;;;;;;;;;;;;5042268;28;20321;-58
2021/10/19 15:09:06;;;;;;;;;;;;;;;;;;5040921;28;19936;-59
2021/10/19 15:11:33;;;;;;;;;;;;;;;;;;5041814;28;20019;-55
2021/10/19 15:14:00;;;;;;;;;;;;;;;;;;5035126;28;20000;-57
2021/10/19 15:16:27;;;;;;;;;;;;;;;;;;5038434;28;20020;-57
2021/10/19 15:18:54;;;;;;;;;;;;;;;;;;5035164;28;19964;-58
2021/10/19 15:21:21;;;;;;;;;;;;;;;;;;5037845;28;19933;-59
2021/10/19 15:23:48;;;;;;;;;;;;;;;;;;5038014;28;19929;-56
2021/10/19 15:26:15;;;;;;;;;;;;;;;;;;5039214;28;19936;-58
2021/10/19 15:28:43;;;;;;;;;;;;;;;;;;5043058;28;19925;-58
2021/10/19 15:31:10;;;;;;;;;;;;;;;;;;5036357;28;19944;-57
2021/10/19 15:33:37;;;;;;;;;;;;;;;;;;5038792;28;19929;-57
2021/10/19 15:36:04;;;;;;;;;;;;;;;;;;5039930;28;19929;-55
2021/10/19 15:38:31;;;;;;;;;;;;;;;;;;5035980;28;19926;-58
2021/10/19 15:40:58;;;;;;;;;;;;;;;;;;5039579;28;19980;-57
2021/10/19 15:43:25;;;;;;;;;;;;;;;;;;5055627;22;20019;-68
2021/10/19 15:45:52;;;;;;;;;;;;;;;;;;5025554;28;20012;-68
2021/10/19 15:48:19;;;;;;;;;;;;;;;;;;5027013;28;20304;-69
2021/10/19 15:50:46;;;;;;;;;;;;;;;;;;5029227;28;19972;-69
2021/10/19 15:53:13;;;;;;;;;;;;;;;;;;5029108;28;19933;-69
2021/10/19 15:55:39;;;;;;;;;;;;;;;;;;5023915;28;19936;-69
2021/10/19 15:58:08;;;;;;;;;;;;;;;;;;5035203;28;19975;-69
2021/10/19 16:00:35;;;;;;;;;;;;;;;;;;5028615;28;20389;-68
2021/10/19 16:03:01;;;;;;;;;;;;;;;;;;5030539;28;20289;-68
2021/10/19 16:05:28;;;;;;;;;;;;;;;;;;5023163;28;19925;-68
2021/10/19 16:07:57;;;;;;;;;;;;;;;;;;5026313;28;20297;-67
2021/10/19 16:10:24;;;;;;;;;;;;;;;;;;5027833;28;19929;-66
2021/10/19 16:12:52;;;;;;;;;;;;;;;;;;5024525;28;20381;-71
2021/10/19 16:15:19;;;;;;;;;;;;;;;;;;5024664;28;19924;-69
2021/10/19 16:17:46;;;;;;;;;;;;;;;;;;5022721;28;19933;-68
2021/10/19 16:20:13;;;;;;;;;;;;;;;;;;5025963;28;19929;-69
2021/10/19 16:22:40;;;;;;;;;;;;;;;;;;5024974;28;19925;-68
2021/10/19 16:25:09;;;;;;;;;;;;;;;;;;5023545;28;20306;-69
2021/10/19 16:27:36;;;;;;;;;;;;;;;;;;5028337;28;19933;-69
2021/10/19 16:30:03;;;;;;;;;;;;;;;;;;5026966;28;19925;-68
2021/10/19 16:32:30;;;;;;;;;;;;;;;;;;5024119;28;19925;-69
2021/10/19 16:34:57;;;;;;;;;;;;;;;;;;5026864;28;19941;-68
2021/10/19 16:37:24;;;;;;;;;;;;;;;;;;5026316;28;19933;-68
2021/10/19 16:39:51;;;;;;;;;;;;;;;;;;5028869;28;19931;-68
2021/10/19 16:42:18;;;;;;;;;;;;;;;;;;5029098;28;19987;-69
2021/10/19 16:44:45;;;;;;;;;;;;;;;;;;5030865;28;20385;-69